sensor_id;sensor_type;location;lat;lon;timestamp;pressure;altitude;pressure_sealevel;temperature;humidity
21276;BME280;36472;52.170;20.884;2022-10-17T00:01:20;101387.47;;;12.01;100.00
21276;BME280;36472;52.170;20.884;2022-10-17T00:03:50;101376.19;;;11.98;100.00
21276;BME280;36472;52.170;20.884;2022-10-17T00:06:18;101379.78;;;11.97;100.00
21276;BME280;36472;52.170;20.884;2022-10-17T00:08:47;101387.59;;;11.99;100.00
21276;BME280;36472;52.170;20.884;2022-10-17T00:11:21;101389.88;;;12.05;100.00
21276;BME280;36472;52.170;20.884;2022-10-17T00:17:06;101387.59;;;11.99;100.00
21276;BME280;36472;52.170;20.884;2022-10-17T00:19:36;101384.09;;;11.98;100.00
21276;BME280;36472;52.170;20.884;2022-10-17T00:22:05;101385.88;;;11.98;100.00
21276;BME280;36472;52.170;20.884;2022-10-17T00:24:33;101383.41;;;11.95;100.00
21276;BME280;36472;52.170;20.884;2022-10-17T00:27:02;101374.00;;;11.91;100.00
21276;BME280;36472;52.170;20.884;2022-10-17T00:29:31;101377.47;;;11.91;100.00
21276;BME280;36472;52.170;20.884;2022-10-17T00:32:00;101378.31;;;11.92;100.00
21276;BME280;36472;52.170;20.884;2022-10-17T00:34:29;101387.69;;;11.97;100.00
21276;BME280;36472;52.170;20.884;2022-10-17T00:36:59;101384.25;;;11.95;100.00
21276;BME280;36472;52.170;20.884;2022-10-17T00:39:28;101394.72;;;11.97;100.00
21276;BME280;36472;52.170;20.884;2022-10-17T00:41:58;101390.00;;;11.86;100.00
21276;BME280;36472;52.170;20.884;2022-10-17T00:45:02;101393.41;;;11.88;100.00
21276;BME280;36472;52.170;20.884;2022-10-17T00:47:34;101398.00;;;11.85;100.00
21276;BME280;36472;52.170;20.884;2022-10-17T00:50:07;101391.13;;;11.82;100.00
21276;BME280;36472;52.170;20.884;2022-10-17T00:52:38;101399.72;;;11.86;100.00
21276;BME280;36472;52.170;20.884;2022-10-17T00:55:13;101392.22;;;11.78;100.00
21276;BME280;36472;52.170;20.884;2022-10-17T00:57:43;101401.16;;;11.75;100.00
21276;BME280;36472;52.170;20.884;2022-10-17T01:00:15;101399.50;;;11.73;100.00
21276;BME280;36472;52.170;20.884;2022-10-17T01:02:45;101393.47;;;11.71;100.00
21276;BME280;36472;52.170;20.884;2022-10-17T01:05:15;101392.72;;;11.69;100.00
21276;BME280;36472;52.170;20.884;2022-10-17T01:07:49;101398.75;;;11.71;100.00
21276;BME280;36472;52.170;20.884;2022-10-17T01:10:21;101399.44;;;11.74;100.00
21276;BME280;36472;52.170;20.884;2022-10-17T01:13:07;101403.69;;;11.77;100.00
21276;BME280;36472;52.170;20.884;2022-10-17T01:15:58;101408.09;;;11.76;100.00
21276;BME280;36472;52.170;20.884;2022-10-17T01:18:48;101409.72;;;11.79;100.00
21276;BME280;36472;52.170;20.884;2022-10-17T01:21:41;101410.41;;;11.83;100.00
21276;BME280;36472;52.170;20.884;2022-10-17T01:24:54;101406.84;;;11.84;100.00
21276;BME280;36472;52.170;20.884;2022-10-17T01:28:14;101398.84;;;11.85;100.00
21276;BME280;36472;52.170;20.884;2022-10-17T01:31:06;101384.59;;;11.89;100.00
21276;BME280;36472;52.170;20.884;2022-10-17T01:33:52;101393.13;;;11.94;100.00
21276;BME280;36472;52.170;20.884;2022-10-17T01:36:37;101387.84;;;11.94;100.00
21276;BME280;36472;52.170;20.884;2022-10-17T01:39:19;101383.25;;;11.98;100.00
21276;BME280;36472;52.170;20.884;2022-10-17T01:42:00;101379.50;;;12.02;100.00
21276;BME280;36472;52.170;20.884;2022-10-17T01:44:38;101380.44;;;12.01;100.00
21276;BME280;36472;52.170;20.884;2022-10-17T01:47:16;101376.47;;;11.94;100.00
21276;BME280;36472;52.170;20.884;2022-10-17T01:49:50;101400.75;;;12.31;100.00
21276;BME280;36472;52.170;20.884;2022-10-17T01:52:25;101394.78;;;12.27;100.00
21276;BME280;36472;52.170;20.884;2022-10-17T01:55:00;101401.28;;;12.22;100.00
21276;BME280;36472;52.170;20.884;2022-10-17T01:57:35;101397.00;;;12.19;100.00
21276;BME280;36472;52.170;20.884;2022-10-17T02:00:12;101399.22;;;12.11;100.00
21276;BME280;36472;52.170;20.884;2022-10-17T02:02:46;101401.97;;;12.09;100.00
21276;BME280;36472;52.170;20.884;2022-10-17T02:05:21;101399.66;;;12.03;100.00
21276;BME280;36472;52.170;20.884;2022-10-17T02:07:51;101390.91;;;12.03;100.00
21276;BME280;36472;52.170;20.884;2022-10-17T02:10:29;101398.72;;;12.04;100.00
21276;BME280;36472;52.170;20.884;2022-10-17T02:13:08;101401.25;;;12.06;100.00
21276;BME280;36472;52.170;20.884;2022-10-17T02:15:58;101393.03;;;11.96;100.00
21276;BME280;36472;52.170;20.884;2022-10-17T02:21:50;101401.31;;;11.88;100.00
21276;BME280;36472;52.170;20.884;2022-10-17T02:24:32;101417.16;;;12.20;100.00
21276;BME280;36472;52.170;20.884;2022-10-17T02:27:12;101396.22;;;11.85;100.00
21276;BME280;36472;52.170;20.884;2022-10-17T02:29:47;101407.09;;;11.79;100.00
21276;BME280;36472;52.170;20.884;2022-10-17T02:32:24;101404.09;;;11.69;100.00
21276;BME280;36472;52.170;20.884;2022-10-17T02:35:01;101420.06;;;11.66;100.00
21276;BME280;36472;52.170;20.884;2022-10-17T02:37:32;101436.38;;;11.73;100.00
21276;BME280;36472;52.170;20.884;2022-10-17T02:40:04;101433.66;;;11.74;100.00
21276;BME280;36472;52.170;20.884;2022-10-17T02:42:38;101447.94;;;11.70;100.00
21276;BME280;36472;52.170;20.884;2022-10-17T02:45:09;101435.16;;;11.63;100.00
21276;BME280;36472;52.170;20.884;2022-10-17T02:47:49;101433.56;;;11.60;100.00
21276;BME280;36472;52.170;20.884;2022-10-17T02:50:44;101439.84;;;11.57;100.00
21276;BME280;36472;52.170;20.884;2022-10-17T02:53:28;101444.34;;;11.55;100.00
21276;BME280;36472;52.170;20.884;2022-10-17T02:56:05;101455.88;;;11.53;100.00
21276;BME280;36472;52.170;20.884;2022-10-17T02:58:38;101456.13;;;11.48;100.00
21276;BME280;36472;52.170;20.884;2022-10-17T03:01:09;101453.66;;;11.45;100.00
21276;BME280;36472;52.170;20.884;2022-10-17T03:03:38;101459.75;;;11.46;100.00
21276;BME280;36472;52.170;20.884;2022-10-17T03:06:09;101469.28;;;11.48;100.00
21276;BME280;36472;52.170;20.884;2022-10-17T03:08:38;101479.13;;;11.45;100.00
21276;BME280;36472;52.170;20.884;2022-10-17T03:11:07;101479.97;;;11.45;100.00
21276;BME280;36472;52.170;20.884;2022-10-17T03:13:36;101488.94;;;11.58;100.00
21276;BME280;36472;52.170;20.884;2022-10-17T03:16:07;101493.81;;;11.49;100.00
21276;BME280;36472;52.170;20.884;2022-10-17T03:18:37;101492.97;;;11.48;100.00
21276;BME280;36472;52.170;20.884;2022-10-17T03:21:08;101478.63;;;11.54;100.00
21276;BME280;36472;52.170;20.884;2022-10-17T03:23:38;101488.31;;;11.53;100.00
21276;BME280;36472;52.170;20.884;2022-10-17T03:26:08;101492.50;;;11.57;100.00
21276;BME280;36472;52.170;20.884;2022-10-17T03:28:38;101476.00;;;11.54;100.00
21276;BME280;36472;52.170;20.884;2022-10-17T03:31:09;101476.06;;;11.52;100.00
21276;BME280;36472;52.170;20.884;2022-10-17T03:33:38;101487.00;;;11.62;100.00
21276;BME280;36472;52.170;20.884;2022-10-17T03:36:13;101482.72;;;11.59;100.00
21276;BME280;36472;52.170;20.884;2022-10-17T03:38:45;101474.91;;;11.58;100.00
21276;BME280;36472;52.170;20.884;2022-10-17T03:41:16;101475.78;;;11.58;100.00
21276;BME280;36472;52.170;20.884;2022-10-17T03:43:45;101486.75;;;11.67;100.00
21276;BME280;36472;52.170;20.884;2022-10-17T03:46:14;101482.25;;;11.69;100.00
21276;BME280;36472;52.170;20.884;2022-10-17T03:48:47;101480.69;;;11.65;100.00
21276;BME280;36472;52.170;20.884;2022-10-17T03:51:17;101484.66;;;11.56;100.00
21276;BME280;36472;52.170;20.884;2022-10-17T03:53:51;101472.69;;;11.50;100.00
21276;BME280;36472;52.170;20.884;2022-10-17T03:56:23;101470.06;;;11.50;100.00
21276;BME280;36472;52.170;20.884;2022-10-17T03:59:04;101478.31;;;11.60;100.00
21276;BME280;36472;52.170;20.884;2022-10-17T04:01:35;101476.84;;;11.54;100.00
21276;BME280;36472;52.170;20.884;2022-10-17T04:04:05;101489.84;;;11.57;100.00
21276;BME280;36472;52.170;20.884;2022-10-17T04:06:37;101488.00;;;11.59;100.00
21276;BME280;36472;52.170;20.884;2022-10-17T04:09:06;101477.78;;;11.53;100.00
21276;BME280;36472;52.170;20.884;2022-10-17T04:11:45;101490.19;;;11.51;100.00
21276;BME280;36472;52.170;20.884;2022-10-17T04:14:14;101488.63;;;11.47;100.00
21276;BME280;36472;52.170;20.884;2022-10-17T04:16:42;101499.53;;;11.57;100.00
21276;BME280;36472;52.170;20.884;2022-10-17T04:19:16;101507.56;;;11.71;100.00
21276;BME280;36472;52.170;20.884;2022-10-17T04:21:47;101518.06;;;11.55;100.00
21276;BME280;36472;52.170;20.884;2022-10-17T04:24:17;101517.75;;;11.44;100.00
21276;BME280;36472;52.170;20.884;2022-10-17T04:26:58;101510.25;;;11.36;100.00
21276;BME280;36472;52.170;20.884;2022-10-17T04:29:29;101514.81;;;11.33;100.00
21276;BME280;36472;52.170;20.884;2022-10-17T04:32:08;101506.47;;;11.25;100.00
21276;BME280;36472;52.170;20.884;2022-10-17T04:34:47;101506.81;;;11.17;100.00
21276;BME280;36472;52.170;20.884;2022-10-17T04:37:18;101509.63;;;11.14;100.00
21276;BME280;36472;52.170;20.884;2022-10-17T04:39:49;101502.50;;;11.16;100.00
21276;BME280;36472;52.170;20.884;2022-10-17T04:42:18;101499.94;;;11.14;100.00
21276;BME280;36472;52.170;20.884;2022-10-17T04:44:47;101505.28;;;11.13;100.00
21276;BME280;36472;52.170;20.884;2022-10-17T04:47:17;101497.41;;;11.13;100.00
21276;BME280;36472;52.170;20.884;2022-10-17T04:49:46;101497.31;;;11.14;100.00
21276;BME280;36472;52.170;20.884;2022-10-17T04:52:15;101501.88;;;11.11;100.00
21276;BME280;36472;52.170;20.884;2022-10-17T04:54:49;101514.75;;;11.34;100.00
21276;BME280;36472;52.170;20.884;2022-10-17T04:57:18;101522.56;;;11.36;100.00
21276;BME280;36472;52.170;20.884;2022-10-17T04:59:55;101520.22;;;11.30;100.00
21276;BME280;36472;52.170;20.884;2022-10-17T05:02:50;101528.28;;;11.27;100.00
21276;BME280;36472;52.170;20.884;2022-10-17T05:05:19;101538.81;;;11.27;100.00
21276;BME280;36472;52.170;20.884;2022-10-17T05:07:50;101537.13;;;11.26;100.00
21276;BME280;36472;52.170;20.884;2022-10-17T05:10:24;101540.59;;;11.26;100.00
21276;BME280;36472;52.170;20.884;2022-10-17T05:12:54;101544.06;;;11.27;100.00
21276;BME280;36472;52.170;20.884;2022-10-17T05:15:27;101544.91;;;11.27;100.00
21276;BME280;36472;52.170;20.884;2022-10-17T05:17:56;101546.56;;;11.30;100.00
21276;BME280;36472;52.170;20.884;2022-10-17T05:20:28;101557.56;;;11.38;100.00
21276;BME280;36472;52.170;20.884;2022-10-17T05:22:58;101552.44;;;11.35;100.00
21276;BME280;36472;52.170;20.884;2022-10-17T05:25:33;101537.25;;;11.22;100.00
21276;BME280;36472;52.170;20.884;2022-10-17T05:28:01;101551.97;;;11.27;100.00
21276;BME280;36472;52.170;20.884;2022-10-17T05:30:30;101549.88;;;11.33;100.00
21276;BME280;36472;52.170;20.884;2022-10-17T05:33:04;101549.59;;;11.39;100.00
21276;BME280;36472;52.170;20.884;2022-10-17T05:35:33;101551.03;;;11.45;100.00
21276;BME280;36472;52.170;20.884;2022-10-17T05:38:02;101559.56;;;11.50;100.00
21276;BME280;36472;52.170;20.884;2022-10-17T05:40:35;101572.88;;;11.65;100.00
21276;BME280;36472;52.170;20.884;2022-10-17T05:43:05;101583.88;;;11.55;100.00
21276;BME280;36472;52.170;20.884;2022-10-17T05:45:35;101592.72;;;11.72;100.00
21276;BME280;36472;52.170;20.884;2022-10-17T05:48:06;101613.31;;;11.98;100.00
21276;BME280;36472;52.170;20.884;2022-10-17T05:50:36;101603.09;;;11.92;100.00
21276;BME280;36472;52.170;20.884;2022-10-17T05:53:11;101594.94;;;11.79;100.00
21276;BME280;36472;52.170;20.884;2022-10-17T05:55:55;101590.34;;;11.83;100.00
21276;BME280;36472;52.170;20.884;2022-10-17T05:58:25;101592.16;;;11.83;100.00
21276;BME280;36472;52.170;20.884;2022-10-17T06:01:32;101581.84;;;11.78;100.00
21276;BME280;36472;52.170;20.884;2022-10-17T06:04:01;101579.75;;;11.85;100.00
21276;BME280;36472;52.170;20.884;2022-10-17T06:06:31;101571.06;;;11.83;100.00
21276;BME280;36472;52.170;20.884;2022-10-17T06:09:00;101586.66;;;11.87;100.00
21276;BME280;36472;52.170;20.884;2022-10-17T06:11:35;101595.72;;;11.99;100.00
21276;BME280;36472;52.170;20.884;2022-10-17T06:14:05;101599.66;;;12.08;100.00
21276;BME280;36472;52.170;20.884;2022-10-17T06:16:37;101613.13;;;12.19;100.00
21276;BME280;36472;52.170;20.884;2022-10-17T06:19:05;101625.78;;;12.46;100.00
21276;BME280;36472;52.170;20.884;2022-10-17T06:21:34;101629.16;;;12.48;100.00
21276;BME280;36472;52.170;20.884;2022-10-17T06:24:20;101617.19;;;12.42;100.00
21276;BME280;36472;52.170;20.884;2022-10-17T06:26:52;101621.50;;;12.43;100.00
21276;BME280;36472;52.170;20.884;2022-10-17T06:29:21;101621.88;;;12.53;100.00
21276;BME280;36472;52.170;20.884;2022-10-17T06:31:51;101622.38;;;12.60;100.00
21276;BME280;36472;52.170;20.884;2022-10-17T06:34:20;101619.16;;;12.70;100.00
21276;BME280;36472;52.170;20.884;2022-10-17T06:36:49;101627.69;;;12.91;100.00
21276;BME280;36472;52.170;20.884;2022-10-17T06:39:19;101628.97;;;13.00;100.00
21276;BME280;36472;52.170;20.884;2022-10-17T06:41:58;101629.97;;;13.14;100.00
21276;BME280;36472;52.170;20.884;2022-10-17T06:44:43;101630.19;;;13.25;100.00
21276;BME280;36472;52.170;20.884;2022-10-17T06:47:39;101636.34;;;13.41;100.00
21276;BME280;36472;52.170;20.884;2022-10-17T06:50:22;101634.50;;;13.58;100.00
21276;BME280;36472;52.170;20.884;2022-10-17T06:53:04;101631.25;;;13.69;100.00
21276;BME280;36472;52.170;20.884;2022-10-17T06:55:50;101642.91;;;13.80;100.00
21276;BME280;36472;52.170;20.884;2022-10-17T06:58:37;101643.09;;;13.92;100.00
21276;BME280;36472;52.170;20.884;2022-10-17T07:01:13;101646.53;;;14.08;100.00
21276;BME280;36472;52.170;20.884;2022-10-17T07:03:47;101639.16;;;14.13;100.00
21276;BME280;36472;52.170;20.884;2022-10-17T07:06:16;101636.72;;;14.25;100.00
21276;BME280;36472;52.170;20.884;2022-10-17T07:08:46;101649.28;;;14.35;100.00
21276;BME280;36472;52.170;20.884;2022-10-17T07:11:20;101645.69;;;14.36;100.00
21276;BME280;36472;52.170;20.884;2022-10-17T07:13:53;101651.72;;;14.53;100.00
21276;BME280;36472;52.170;20.884;2022-10-17T07:16:21;101656.38;;;14.64;100.00
21276;BME280;36472;52.170;20.884;2022-10-17T07:18:58;101659.72;;;14.67;100.00
21276;BME280;36472;52.170;20.884;2022-10-17T07:21:32;101660.53;;;14.82;100.00
21276;BME280;36472;52.170;20.884;2022-10-17T07:24:06;101661.16;;;15.00;100.00
21276;BME280;36472;52.170;20.884;2022-10-17T07:26:35;101664.91;;;15.10;100.00
21276;BME280;36472;52.170;20.884;2022-10-17T07:29:05;101659.28;;;15.29;100.00
21276;BME280;36472;52.170;20.884;2022-10-17T07:32:00;101649.16;;;15.49;100.00
21276;BME280;36472;52.170;20.884;2022-10-17T07:34:30;101640.41;;;15.61;100.00
21276;BME280;36472;52.170;20.884;2022-10-17T07:36:59;101637.88;;;15.73;100.00
21276;BME280;36472;52.170;20.884;2022-10-17T07:39:28;101641.38;;;15.73;98.91
21276;BME280;36472;52.170;20.884;2022-10-17T07:41:56;101661.59;;;15.88;97.73
21276;BME280;36472;52.170;20.884;2022-10-17T07:44:27;101663.06;;;16.70;91.96
21276;BME280;36472;52.170;20.884;2022-10-17T07:46:56;101663.19;;;16.42;94.89
21276;BME280;36472;52.170;20.884;2022-10-17T07:49:25;101667.00;;;16.25;93.02
21276;BME280;36472;52.170;20.884;2022-10-17T07:51:54;101674.94;;;16.90;92.48
21276;BME280;36472;52.170;20.884;2022-10-17T07:54:22;101674.56;;;17.55;84.66
21276;BME280;36472;52.170;20.884;2022-10-17T07:56:51;101674.06;;;16.89;89.63
21276;BME280;36472;52.170;20.884;2022-10-17T07:59:20;101681.22;;;16.76;89.21
21276;BME280;36472;52.170;20.884;2022-10-17T08:01:50;101686.03;;;17.08;89.29
21276;BME280;36472;52.170;20.884;2022-10-17T08:04:19;101684.03;;;17.35;89.20
21276;BME280;36472;52.170;20.884;2022-10-17T08:06:47;101691.16;;;17.94;83.39
21276;BME280;36472;52.170;20.884;2022-10-17T08:09:22;101689.72;;;17.42;85.34
21276;BME280;36472;52.170;20.884;2022-10-17T08:11:51;101681.13;;;17.87;85.17
21276;BME280;36472;52.170;20.884;2022-10-17T08:14:20;101698.31;;;17.70;83.89
21276;BME280;36472;52.170;20.884;2022-10-17T08:16:53;101693.31;;;17.89;84.63
21276;BME280;36472;52.170;20.884;2022-10-17T08:19:21;101693.59;;;17.98;83.31
21276;BME280;36472;52.170;20.884;2022-10-17T08:21:50;101696.84;;;18.71;80.72
21276;BME280;36472;52.170;20.884;2022-10-17T08:24:21;101695.38;;;19.00;77.94
21276;BME280;36472;52.170;20.884;2022-10-17T08:26:49;101697.13;;;18.09;82.21
21276;BME280;36472;52.170;20.884;2022-10-17T08:29:19;101698.56;;;18.02;83.61
21276;BME280;36472;52.170;20.884;2022-10-17T08:31:49;101698.75;;;18.57;79.83
21276;BME280;36472;52.170;20.884;2022-10-17T08:34:27;101702.63;;;18.42;82.00
21276;BME280;36472;52.170;20.884;2022-10-17T08:36:56;101698.19;;;17.96;81.18
21276;BME280;36472;52.170;20.884;2022-10-17T08:39:25;101696.63;;;18.04;82.86
21276;BME280;36472;52.170;20.884;2022-10-17T08:42:08;101682.53;;;18.26;82.01
21276;BME280;36472;52.170;20.884;2022-10-17T08:44:54;101698.50;;;18.38;77.98
21276;BME280;36472;52.170;20.884;2022-10-17T08:47:33;101691.72;;;18.34;79.58
21276;BME280;36472;52.170;20.884;2022-10-17T08:50:08;101696.19;;;19.23;76.21
21276;BME280;36472;52.170;20.884;2022-10-17T08:52:45;101690.44;;;18.62;77.08
21276;BME280;36472;52.170;20.884;2022-10-17T08:55:22;101686.66;;;18.87;78.78
21276;BME280;36472;52.170;20.884;2022-10-17T08:57:55;101684.13;;;18.97;78.03
21276;BME280;36472;52.170;20.884;2022-10-17T09:00:25;101691.38;;;18.72;76.85
21276;BME280;36472;52.170;20.884;2022-10-17T09:03:17;101680.09;;;19.14;75.66
21276;BME280;36472;52.170;20.884;2022-10-17T09:05:54;101687.22;;;19.57;73.68
21276;BME280;36472;52.170;20.884;2022-10-17T09:08:36;101676.16;;;19.40;76.52
21276;BME280;36472;52.170;20.884;2022-10-17T09:11:20;101680.13;;;19.46;76.18
21276;BME280;36472;52.170;20.884;2022-10-17T09:14:09;101684.59;;;19.46;73.90
21276;BME280;36472;52.170;20.884;2022-10-17T09:16:58;101682.31;;;19.41;72.53
21276;BME280;36472;52.170;20.884;2022-10-17T09:19:35;101686.13;;;20.74;67.55
21276;BME280;36472;52.170;20.884;2022-10-17T09:22:12;101683.34;;;21.65;63.31
21276;BME280;36472;52.170;20.884;2022-10-17T09:24:48;101683.97;;;22.16;60.78
21276;BME280;36472;52.170;20.884;2022-10-17T09:27:24;101684.09;;;20.57;68.04
21276;BME280;36472;52.170;20.884;2022-10-17T09:30:22;101678.16;;;20.53;67.81
21276;BME280;36472;52.170;20.884;2022-10-17T09:33:14;101682.19;;;20.48;68.08
21276;BME280;36472;52.170;20.884;2022-10-17T09:36:11;101677.59;;;20.60;68.40
21276;BME280;36472;52.170;20.884;2022-10-17T09:38:46;101674.47;;;21.45;64.73
21276;BME280;36472;52.170;20.884;2022-10-17T09:41:19;101674.22;;;20.88;65.92
21276;BME280;36472;52.170;20.884;2022-10-17T09:44:17;101674.38;;;20.56;68.80
21276;BME280;36472;52.170;20.884;2022-10-17T09:47:20;101665.72;;;21.43;65.72
21276;BME280;36472;52.170;20.884;2022-10-17T09:49:51;101668.59;;;20.51;67.38
21276;BME280;36472;52.170;20.884;2022-10-17T09:52:27;101661.03;;;20.97;67.08
21276;BME280;36472;52.170;20.884;2022-10-17T09:55:02;101662.44;;;21.01;68.73
21276;BME280;36472;52.170;20.884;2022-10-17T09:57:54;101651.31;;;22.03;62.06
21276;BME280;36472;52.170;20.884;2022-10-17T10:00:26;101654.28;;;20.92;63.29
21276;BME280;36472;52.170;20.884;2022-10-17T10:03:13;101648.47;;;20.47;66.38
21276;BME280;36472;52.170;20.884;2022-10-17T10:05:59;101643.97;;;20.47;66.86
21276;BME280;36472;52.170;20.884;2022-10-17T10:08:35;101647.78;;;20.85;64.42
21276;BME280;36472;52.170;20.884;2022-10-17T10:11:07;101650.91;;;20.60;66.03
21276;BME280;36472;52.170;20.884;2022-10-17T10:13:41;101654.44;;;20.60;68.05
21276;BME280;36472;52.170;20.884;2022-10-17T10:16:19;101642.31;;;20.46;67.45
21276;BME280;36472;52.170;20.884;2022-10-17T10:18:49;101656.72;;;20.65;67.48
21276;BME280;36472;52.170;20.884;2022-10-17T10:21:20;101644.28;;;20.54;66.65
21276;BME280;36472;52.170;20.884;2022-10-17T10:24:10;101660.19;;;20.96;66.62
21276;BME280;36472;52.170;20.884;2022-10-17T10:26:43;101655.56;;;21.08;67.15
21276;BME280;36472;52.170;20.884;2022-10-17T10:29:25;101645.84;;;21.07;63.80
21276;BME280;36472;52.170;20.884;2022-10-17T10:32:08;101658.00;;;21.40;64.95
21276;BME280;36472;52.170;20.884;2022-10-17T10:34:45;101655.44;;;21.29;62.97
21276;BME280;36472;52.170;20.884;2022-10-17T10:37:20;101656.56;;;21.36;63.19
21276;BME280;36472;52.170;20.884;2022-10-17T10:39:54;101640.53;;;21.85;60.76
21276;BME280;36472;52.170;20.884;2022-10-17T10:42:27;101641.25;;;22.90;59.29
21276;BME280;36472;52.170;20.884;2022-10-17T10:45:01;101641.88;;;23.02;56.60
21276;BME280;36472;52.170;20.884;2022-10-17T10:47:31;101643.84;;;23.09;56.38
21276;BME280;36472;52.170;20.884;2022-10-17T10:50:23;101645.63;;;22.91;58.44
21276;BME280;36472;52.170;20.884;2022-10-17T10:53:25;101637.97;;;22.40;57.36
21276;BME280;36472;52.170;20.884;2022-10-17T13:38:45;101590.50;;;20.68;66.64
21276;BME280;36472;52.170;20.884;2022-10-17T13:41:17;101591.81;;;20.74;66.81
21276;BME280;36472;52.170;20.884;2022-10-17T13:44:10;101574.06;;;20.73;68.84
21276;BME280;36472;52.170;20.884;2022-10-17T13:46:40;101581.66;;;20.68;68.01
21276;BME280;36472;52.170;20.884;2022-10-17T13:49:16;101586.09;;;20.58;70.54
21276;BME280;36472;52.170;20.884;2022-10-17T13:51:52;101583.53;;;20.36;69.23
21276;BME280;36472;52.170;20.884;2022-10-17T13:54:36;101579.88;;;20.47;68.66
21276;BME280;36472;52.170;20.884;2022-10-17T13:57:18;101577.34;;;20.46;68.61
21276;BME280;36472;52.170;20.884;2022-10-17T13:59:51;101570.47;;;20.53;68.83
21276;BME280;36472;52.170;20.884;2022-10-17T14:02:23;101581.03;;;20.54;69.09
21276;BME280;36472;52.170;20.884;2022-10-17T14:05:00;101574.28;;;20.50;70.29
21276;BME280;36472;52.170;20.884;2022-10-17T14:07:51;101571.63;;;20.50;69.60
21276;BME280;36472;52.170;20.884;2022-10-17T14:10:43;101569.47;;;20.44;69.19
21276;BME280;36472;52.170;20.884;2022-10-17T14:13:21;101568.66;;;20.44;70.97
21276;BME280;36472;52.170;20.884;2022-10-17T14:15:52;101571.97;;;20.36;70.61
21276;BME280;36472;52.170;20.884;2022-10-17T14:18:26;101572.16;;;20.34;71.00
21276;BME280;36472;52.170;20.884;2022-10-17T14:21:04;101569.69;;;20.22;74.37
21276;BME280;36472;52.170;20.884;2022-10-17T14:24:14;101568.41;;;20.16;74.10
21276;BME280;36472;52.170;20.884;2022-10-17T14:26:50;101566.97;;;20.02;74.55
21276;BME280;36472;52.170;20.884;2022-10-17T14:29:25;101562.84;;;19.98;74.12
21276;BME280;36472;52.170;20.884;2022-10-17T14:32:03;101560.44;;;19.95;74.67
21276;BME280;36472;52.170;20.884;2022-10-17T14:34:36;101542.19;;;19.90;73.13
21276;BME280;36472;52.170;20.884;2022-10-17T14:37:29;101558.22;;;20.00;73.69
21276;BME280;36472;52.170;20.884;2022-10-17T14:40:00;101550.50;;;19.97;73.18
21276;BME280;36472;52.170;20.884;2022-10-17T14:42:31;101556.94;;;19.94;72.85
21276;BME280;36472;52.170;20.884;2022-10-17T14:45:11;101550.38;;;19.98;74.16
21276;BME280;36472;52.170;20.884;2022-10-17T14:47:41;101558.38;;;19.98;73.63
21276;BME280;36472;52.170;20.884;2022-10-17T14:50:22;101553.00;;;19.89;73.15
21276;BME280;36472;52.170;20.884;2022-10-17T14:53:01;101554.41;;;19.93;74.78
21276;BME280;36472;52.170;20.884;2022-10-17T14:55:32;101558.59;;;19.86;75.65
21276;BME280;36472;52.170;20.884;2022-10-17T14:58:15;101555.72;;;19.77;75.12
21276;BME280;36472;52.170;20.884;2022-10-17T15:00:45;101557.25;;;19.59;78.24
21276;BME280;36472;52.170;20.884;2022-10-17T15:03:13;101552.97;;;19.47;77.79
21276;BME280;36472;52.170;20.884;2022-10-17T15:05:42;101548.13;;;19.31;78.90
21276;BME280;36472;52.170;20.884;2022-10-17T15:08:13;101556.16;;;19.19;80.11
21276;BME280;36472;52.170;20.884;2022-10-17T15:10:44;101555.75;;;19.03;82.12
21276;BME280;36472;52.170;20.884;2022-10-17T15:13:14;101559.22;;;18.82;83.54
21276;BME280;36472;52.170;20.884;2022-10-17T15:15:55;101549.16;;;18.63;84.40
21276;BME280;36472;52.170;20.884;2022-10-17T15:18:24;101553.81;;;18.50;85.78
21276;BME280;36472;52.170;20.884;2022-10-17T15:20:52;101551.16;;;18.39;86.59
21276;BME280;36472;52.170;20.884;2022-10-17T15:23:39;101553.81;;;18.27;87.11
21276;BME280;36472;52.170;20.884;2022-10-17T15:26:18;101553.84;;;18.16;88.20
21276;BME280;36472;52.170;20.884;2022-10-17T15:28:49;101546.09;;;18.02;88.92
21276;BME280;36472;52.170;20.884;2022-10-17T15:31:21;101544.78;;;17.96;89.69
21276;BME280;36472;52.170;20.884;2022-10-17T15:33:51;101545.09;;;17.80;90.05
21276;BME280;36472;52.170;20.884;2022-10-17T15:36:23;101560.56;;;17.75;90.63
21276;BME280;36472;52.170;20.884;2022-10-17T15:38:54;101546.53;;;17.62;91.36
21276;BME280;36472;52.170;20.884;2022-10-17T15:41:26;101547.84;;;17.56;92.65
21276;BME280;36472;52.170;20.884;2022-10-17T15:43:56;101540.56;;;17.47;92.94
21276;BME280;36472;52.170;20.884;2022-10-17T15:46:29;101538.38;;;17.41;92.68
21276;BME280;36472;52.170;20.884;2022-10-17T15:49:03;101551.28;;;17.34;93.54
21276;BME280;36472;52.170;20.884;2022-10-17T15:51:34;101537.00;;;17.24;93.90
21276;BME280;36472;52.170;20.884;2022-10-17T15:54:03;101541.31;;;17.13;94.55
21276;BME280;36472;52.170;20.884;2022-10-17T15:56:37;101547.69;;;17.11;94.87
21276;BME280;36472;52.170;20.884;2022-10-17T15:59:11;101538.38;;;17.05;94.68
21276;BME280;36472;52.170;20.884;2022-10-17T16:01:42;101544.34;;;16.96;95.74
21276;BME280;36472;52.170;20.884;2022-10-17T16:04:11;101532.72;;;16.86;96.58
21276;BME280;36472;52.170;20.884;2022-10-17T16:06:42;101529.53;;;16.80;96.65